sensor_id;sensor_type;location;lat;lon;timestamp;temperature;humidity
46458;DHT22;32155;54.076;12.092;2022-10-18T00:00:39;15.50;99.90
46458;DHT22;32155;54.076;12.092;2022-10-18T00:03:05;15.70;99.90
46458;DHT22;32155;54.076;12.092;2022-10-18T00:05:34;15.70;99.90
46458;DHT22;32155;54.076;12.092;2022-10-18T00:07:59;15.70;99.90
46458;DHT22;32155;54.076;12.092;2022-10-18T00:10:25;15.70;99.90
46458;DHT22;32155;54.076;12.092;2022-10-18T00:12:51;15.70;99.90
46458;DHT22;32155;54.076;12.092;2022-10-18T00:15:17;15.70;99.90
46458;DHT22;32155;54.076;12.092;2022-10-18T00:17:43;15.70;99.90
46458;DHT22;32155;54.076;12.092;2022-10-18T00:20:09;15.80;99.90
46458;DHT22;32155;54.076;12.092;2022-10-18T00:22:35;15.80;99.90
46458;DHT22;32155;54.076;12.092;2022-10-18T00:25:03;15.80;99.90
46458;DHT22;32155;54.076;12.092;2022-10-18T00:27:29;15.90;99.90
46458;DHT22;32155;54.076;12.092;2022-10-18T00:29:55;15.90;99.90
46458;DHT22;32155;54.076;12.092;2022-10-18T00:32:23;15.90;99.90
46458;DHT22;32155;54.076;12.092;2022-10-18T00:34:48;15.90;99.90
46458;DHT22;32155;54.076;12.092;2022-10-18T00:37:14;15.90;99.90
46458;DHT22;32155;54.076;12.092;2022-10-18T00:39:39;15.90;99.90
46458;DHT22;32155;54.076;12.092;2022-10-18T00:42:05;15.80;99.90
46458;DHT22;32155;54.076;12.092;2022-10-18T00:47:06;15.80;99.90
46458;DHT22;32155;54.076;12.092;2022-10-18T00:49:34;15.80;99.90
46458;DHT22;32155;54.076;12.092;2022-10-18T00:52:08;15.80;99.90
46458;DHT22;32155;54.076;12.092;2022-10-18T00:54:36;15.70;99.90
46458;DHT22;32155;54.076;12.092;2022-10-18T00:57:04;15.60;99.90
46458;DHT22;32155;54.076;12.092;2022-10-18T00:59:30;15.50;99.90
46458;DHT22;32155;54.076;12.092;2022-10-18T01:01:56;15.50;99.90
46458;DHT22;32155;54.076;12.092;2022-10-18T01:04:22;15.40;99.90
46458;DHT22;32155;54.076;12.092;2022-10-18T01:07:03;15.40;99.90
46458;DHT22;32155;54.076;12.092;2022-10-18T01:17:07;15.30;99.90
46458;DHT22;32155;54.076;12.092;2022-10-18T01:22:32;15.30;99.90
46458;DHT22;32155;54.076;12.092;2022-10-18T01:32:31;15.00;99.90
46458;DHT22;32155;54.076;12.092;2022-10-18T01:35:00;14.90;99.90
46458;DHT22;32155;54.076;12.092;2022-10-18T01:37:27;15.00;99.90
46458;DHT22;32155;54.076;12.092;2022-10-18T01:39:54;14.90;99.90
46458;DHT22;32155;54.076;12.092;2022-10-18T01:42:21;15.00;99.90
46458;DHT22;32155;54.076;12.092;2022-10-18T01:44:47;15.00;99.90
46458;DHT22;32155;54.076;12.092;2022-10-18T01:47:13;14.90;99.90
46458;DHT22;32155;54.076;12.092;2022-10-18T01:49:39;14.80;99.90
46458;DHT22;32155;54.076;12.092;2022-10-18T01:52:05;14.80;99.90
46458;DHT22;32155;54.076;12.092;2022-10-18T01:54:35;14.70;99.90
46458;DHT22;32155;54.076;12.092;2022-10-18T02:05:01;14.70;99.90
46458;DHT22;32155;54.076;12.092;2022-10-18T02:07:35;14.70;99.90
46458;DHT22;32155;54.076;12.092;2022-10-18T02:10:25;14.70;99.90
46458;DHT22;32155;54.076;12.092;2022-10-18T02:12:47;14.80;99.90
46458;DHT22;32155;54.076;12.092;2022-10-18T02:15:16;14.80;99.90
46458;DHT22;32155;54.076;12.092;2022-10-18T02:17:42;14.80;99.90
46458;DHT22;32155;54.076;12.092;2022-10-18T02:20:09;14.80;99.90
46458;DHT22;32155;54.076;12.092;2022-10-18T02:22:36;14.70;99.90
46458;DHT22;32155;54.076;12.092;2022-10-18T02:25:02;14.70;99.90
46458;DHT22;32155;54.076;12.092;2022-10-18T02:27:29;14.60;99.90
46458;DHT22;32155;54.076;12.092;2022-10-18T02:29:55;14.60;99.90
46458;DHT22;32155;54.076;12.092;2022-10-18T02:35:19;14.60;99.90
46458;DHT22;32155;54.076;12.092;2022-10-18T02:37:38;14.50;99.90
46458;DHT22;32155;54.076;12.092;2022-10-18T02:40:05;14.50;99.90
46458;DHT22;32155;54.076;12.092;2022-10-18T02:42:34;14.50;99.90
46458;DHT22;32155;54.076;12.092;2022-10-18T02:45:02;14.50;99.90
46458;DHT22;32155;54.076;12.092;2022-10-18T02:47:30;14.40;99.90
46458;DHT22;32155;54.076;12.092;2022-10-18T02:49:55;14.50;99.90
46458;DHT22;32155;54.076;12.092;2022-10-18T02:52:21;14.50;99.90
46458;DHT22;32155;54.076;12.092;2022-10-18T02:54:46;14.40;99.90
46458;DHT22;32155;54.076;12.092;2022-10-18T02:57:12;14.30;99.90
46458;DHT22;32155;54.076;12.092;2022-10-18T02:59:42;14.20;99.90
46458;DHT22;32155;54.076;12.092;2022-10-18T03:02:10;14.20;99.90
46458;DHT22;32155;54.076;12.092;2022-10-18T03:04:36;14.10;99.90
46458;DHT22;32155;54.076;12.092;2022-10-18T03:07:01;14.10;99.90
46458;DHT22;32155;54.076;12.092;2022-10-18T03:09:27;14.00;99.90
46458;DHT22;32155;54.076;12.092;2022-10-18T03:11:52;14.00;99.90
46458;DHT22;32155;54.076;12.092;2022-10-18T03:14:21;13.90;99.90
46458;DHT22;32155;54.076;12.092;2022-10-18T03:16:46;13.90;99.90
46458;DHT22;32155;54.076;12.092;2022-10-18T03:19:12;13.90;99.90
46458;DHT22;32155;54.076;12.092;2022-10-18T03:21:37;13.80;99.90
46458;DHT22;32155;54.076;12.092;2022-10-18T03:24:06;13.80;99.90
46458;DHT22;32155;54.076;12.092;2022-10-18T03:26:31;13.70;99.90
46458;DHT22;32155;54.076;12.092;2022-10-18T03:28:57;13.80;99.90
46458;DHT22;32155;54.076;12.092;2022-10-18T03:31:25;13.70;99.90
46458;DHT22;32155;54.076;12.092;2022-10-18T03:33:50;13.70;99.90
46458;DHT22;32155;54.076;12.092;2022-10-18T03:36:16;13.60;99.90
46458;DHT22;32155;54.076;12.092;2022-10-18T03:38:41;13.60;99.90
46458;DHT22;32155;54.076;12.092;2022-10-18T03:41:07;13.60;99.90
46458;DHT22;32155;54.076;12.092;2022-10-18T03:43:33;13.70;99.90
46458;DHT22;32155;54.076;12.092;2022-10-18T03:45:58;13.60;99.90
46458;DHT22;32155;54.076;12.092;2022-10-18T03:48:26;13.70;99.90
46458;DHT22;32155;54.076;12.092;2022-10-18T03:50:51;13.60;99.90
46458;DHT22;32155;54.076;12.092;2022-10-18T03:53:20;13.60;99.90
46458;DHT22;32155;54.076;12.092;2022-10-18T03:55:49;13.50;99.90
46458;DHT22;32155;54.076;12.092;2022-10-18T03:58:15;13.40;99.90
46458;DHT22;32155;54.076;12.092;2022-10-18T04:00:40;13.40;99.90
46458;DHT22;32155;54.076;12.092;2022-10-18T04:03:06;13.40;99.90
46458;DHT22;32155;54.076;12.092;2022-10-18T04:05:31;13.30;99.90
46458;DHT22;32155;54.076;12.092;2022-10-18T04:07:58;13.30;99.90
46458;DHT22;32155;54.076;12.092;2022-10-18T04:10:24;13.30;99.90
46458;DHT22;32155;54.076;12.092;2022-10-18T04:12:49;13.30;99.90
46458;DHT22;32155;54.076;12.092;2022-10-18T04:15:17;13.20;99.90
46458;DHT22;32155;54.076;12.092;2022-10-18T04:17:45;13.20;99.90
46458;DHT22;32155;54.076;12.092;2022-10-18T04:20:11;13.20;99.90
46458;DHT22;32155;54.076;12.092;2022-10-18T04:22:36;13.20;99.90
46458;DHT22;32155;54.076;12.092;2022-10-18T04:25:02;13.20;99.90
46458;DHT22;32155;54.076;12.092;2022-10-18T04:27:28;13.30;99.90
46458;DHT22;32155;54.076;12.092;2022-10-18T04:29:55;13.20;99.90
46458;DHT22;32155;54.076;12.092;2022-10-18T04:32:21;13.10;99.90
46458;DHT22;32155;54.076;12.092;2022-10-18T04:34:47;13.20;99.90
46458;DHT22;32155;54.076;12.092;2022-10-18T04:37:12;13.20;99.90
46458;DHT22;32155;54.076;12.092;2022-10-18T04:39:38;13.20;99.90
46458;DHT22;32155;54.076;12.092;2022-10-18T04:42:03;13.30;99.90
46458;DHT22;32155;54.076;12.092;2022-10-18T04:44:29;13.40;99.90
46458;DHT22;32155;54.076;12.092;2022-10-18T04:46:54;13.30;99.90
46458;DHT22;32155;54.076;12.092;2022-10-18T04:49:20;13.20;99.90
46458;DHT22;32155;54.076;12.092;2022-10-18T04:51:45;13.30;99.90
46458;DHT22;32155;54.076;12.092;2022-10-18T04:54:11;13.30;99.90
46458;DHT22;32155;54.076;12.092;2022-10-18T04:56:38;13.20;99.90
46458;DHT22;32155;54.076;12.092;2022-10-18T04:59:04;13.30;99.90
46458;DHT22;32155;54.076;12.092;2022-10-18T05:01:29;13.30;99.90
46458;DHT22;32155;54.076;12.092;2022-10-18T05:03:55;13.30;99.90
46458;DHT22;32155;54.076;12.092;2022-10-18T05:06:20;13.20;99.90
46458;DHT22;32155;54.076;12.092;2022-10-18T05:08:46;13.20;99.90
46458;DHT22;32155;54.076;12.092;2022-10-18T05:11:12;13.20;99.90
46458;DHT22;32155;54.076;12.092;2022-10-18T05:13:37;13.20;99.90
46458;DHT22;32155;54.076;12.092;2022-10-18T05:16:05;13.30;99.90
46458;DHT22;32155;54.076;12.092;2022-10-18T05:18:30;13.30;99.90
46458;DHT22;32155;54.076;12.092;2022-10-18T05:20:56;13.20;99.90
46458;DHT22;32155;54.076;12.092;2022-10-18T05:23:21;13.20;99.90
46458;DHT22;32155;54.076;12.092;2022-10-18T05:25:47;13.20;99.90
46458;DHT22;32155;54.076;12.092;2022-10-18T05:28:15;13.20;99.90
46458;DHT22;32155;54.076;12.092;2022-10-18T05:30:43;13.00;99.90
46458;DHT22;32155;54.076;12.092;2022-10-18T05:33:11;12.90;99.90
46458;DHT22;32155;54.076;12.092;2022-10-18T05:35:39;12.90;99.90
46458;DHT22;32155;54.076;12.092;2022-10-18T05:38:05;12.90;99.90
46458;DHT22;32155;54.076;12.092;2022-10-18T05:40:36;12.80;99.90
46458;DHT22;32155;54.076;12.092;2022-10-18T05:43:02;12.60;99.90
46458;DHT22;32155;54.076;12.092;2022-10-18T05:45:30;12.70;99.90
46458;DHT22;32155;54.076;12.092;2022-10-18T05:47:55;12.80;99.90
46458;DHT22;32155;54.076;12.092;2022-10-18T05:50:21;12.80;99.90
46458;DHT22;32155;54.076;12.092;2022-10-18T05:52:46;12.90;99.90
46458;DHT22;32155;54.076;12.092;2022-10-18T05:55:12;12.90;99.90
46458;DHT22;32155;54.076;12.092;2022-10-18T05:57:37;12.90;99.90
46458;DHT22;32155;54.076;12.092;2022-10-18T06:00:03;13.00;99.90
46458;DHT22;32155;54.076;12.092;2022-10-18T06:02:28;13.00;99.90
46458;DHT22;32155;54.076;12.092;2022-10-18T06:04:54;13.10;99.90
46458;DHT22;32155;54.076;12.092;2022-10-18T06:07:19;13.20;99.90
46458;DHT22;32155;54.076;12.092;2022-10-18T06:09:45;13.20;99.90
46458;DHT22;32155;54.076;12.092;2022-10-18T06:12:10;13.20;99.90
46458;DHT22;32155;54.076;12.092;2022-10-18T06:14:38;13.20;99.90
46458;DHT22;32155;54.076;12.092;2022-10-18T06:17:03;13.20;99.90
46458;DHT22;32155;54.076;12.092;2022-10-18T06:19:29;13.20;99.90
46458;DHT22;32155;54.076;12.092;2022-10-18T06:21:54;13.20;99.90
46458;DHT22;32155;54.076;12.092;2022-10-18T06:24:20;13.40;99.90
46458;DHT22;32155;54.076;12.092;2022-10-18T06:26:46;13.40;99.90
46458;DHT22;32155;54.076;12.092;2022-10-18T06:29:14;13.50;99.90
46458;DHT22;32155;54.076;12.092;2022-10-18T06:31:39;13.60;99.90
46458;DHT22;32155;54.076;12.092;2022-10-18T06:34:05;13.60;99.90
46458;DHT22;32155;54.076;12.092;2022-10-18T06:36:31;13.70;99.90
46458;DHT22;32155;54.076;12.092;2022-10-18T06:38:57;13.70;99.90
46458;DHT22;32155;54.076;12.092;2022-10-18T06:41:25;13.80;99.90
46458;DHT22;32155;54.076;12.092;2022-10-18T06:43:51;13.90;99.90
46458;DHT22;32155;54.076;12.092;2022-10-18T06:46:17;13.90;99.90
46458;DHT22;32155;54.076;12.092;2022-10-18T06:48:43;13.90;99.90
46458;DHT22;32155;54.076;12.092;2022-10-18T06:51:08;13.90;99.90
46458;DHT22;32155;54.076;12.092;2022-10-18T06:53:35;13.90;99.90
46458;DHT22;32155;54.076;12.092;2022-10-18T06:56:05;14.00;99.90
46458;DHT22;32155;54.076;12.092;2022-10-18T06:58:31;13.90;99.90
46458;DHT22;32155;54.076;12.092;2022-10-18T07:00:57;13.90;99.90
46458;DHT22;32155;54.076;12.092;2022-10-18T07:03:22;13.90;99.90
46458;DHT22;32155;54.076;12.092;2022-10-18T07:05:48;14.00;99.90
46458;DHT22;32155;54.076;12.092;2022-10-18T07:08:14;14.00;99.90
46458;DHT22;32155;54.076;12.092;2022-10-18T07:10:39;13.90;99.90
46458;DHT22;32155;54.076;12.092;2022-10-18T07:13:05;13.90;99.90
46458;DHT22;32155;54.076;12.092;2022-10-18T07:15:31;14.00;99.90
46458;DHT22;32155;54.076;12.092;2022-10-18T07:17:56;13.90;99.90
46458;DHT22;32155;54.076;12.092;2022-10-18T07:20:24;13.90;99.90
46458;DHT22;32155;54.076;12.092;2022-10-18T07:22:49;13.90;99.90
46458;DHT22;32155;54.076;12.092;2022-10-18T07:25:19;14.00;99.90
46458;DHT22;32155;54.076;12.092;2022-10-18T07:27:45;14.00;99.90
46458;DHT22;32155;54.076;12.092;2022-10-18T07:30:10;14.10;99.90
46458;DHT22;32155;54.076;12.092;2022-10-18T07:32:36;14.00;99.90
46458;DHT22;32155;54.076;12.092;2022-10-18T07:35:03;14.10;99.90
46458;DHT22;32155;54.076;12.092;2022-10-18T07:37:28;14.20;99.90
46458;DHT22;32155;54.076;12.092;2022-10-18T07:39:54;14.20;99.90
46458;DHT22;32155;54.076;12.092;2022-10-18T07:42:19;14.20;99.90
46458;DHT22;32155;54.076;12.092;2022-10-18T07:44:45;14.30;99.90
46458;DHT22;32155;54.076;12.092;2022-10-18T07:47:10;14.30;99.90
46458;DHT22;32155;54.076;12.092;2022-10-18T07:49:36;14.30;99.90
46458;DHT22;32155;54.076;12.092;2022-10-18T07:52:02;14.40;99.90
46458;DHT22;32155;54.076;12.092;2022-10-18T07:54:27;14.40;99.90
46458;DHT22;32155;54.076;12.092;2022-10-18T07:56:55;14.50;99.90
46458;DHT22;32155;54.076;12.092;2022-10-18T07:59:21;14.60;99.90
46458;DHT22;32155;54.076;12.092;2022-10-18T08:01:50;14.60;99.90
46458;DHT22;32155;54.076;12.092;2022-10-18T08:04:17;14.60;99.90
46458;DHT22;32155;54.076;12.092;2022-10-18T08:06:43;14.70;99.90
46458;DHT22;32155;54.076;12.092;2022-10-18T08:09:09;14.70;99.90
46458;DHT22;32155;54.076;12.092;2022-10-18T08:11:35;14.60;99.90
46458;DHT22;32155;54.076;12.092;2022-10-18T08:14:00;14.70;99.90
46458;DHT22;32155;54.076;12.092;2022-10-18T08:16:28;14.70;99.90
46458;DHT22;32155;54.076;12.092;2022-10-18T08:18:56;14.80;99.90
46458;DHT22;32155;54.076;12.092;2022-10-18T08:21:22;14.80;99.90
46458;DHT22;32155;54.076;12.092;2022-10-18T08:23:48;14.90;99.90
46458;DHT22;32155;54.076;12.092;2022-10-18T08:26:17;15.00;99.90
46458;DHT22;32155;54.076;12.092;2022-10-18T08:28:43;15.00;99.90
46458;DHT22;32155;54.076;12.092;2022-10-18T08:31:11;15.00;99.90
46458;DHT22;32155;54.076;12.092;2022-10-18T08:33:37;15.10;99.90
46458;DHT22;32155;54.076;12.092;2022-10-18T08:36:04;15.20;99.90
46458;DHT22;32155;54.076;12.092;2022-10-18T08:38:31;15.40;99.90
46458;DHT22;32155;54.076;12.092;2022-10-18T08:44:05;15.50;99.90
46458;DHT22;32155;54.076;12.092;2022-10-18T08:46:34;15.50;99.90
46458;DHT22;32155;54.076;12.092;2022-10-18T08:49:03;15.70;99.90
46458;DHT22;32155;54.076;12.092;2022-10-18T08:51:33;15.80;99.90
46458;DHT22;32155;54.076;12.092;2022-10-18T08:54:02;16.00;99.90
46458;DHT22;32155;54.076;12.092;2022-10-18T08:56:29;16.20;99.90
46458;DHT22;32155;54.076;12.092;2022-10-18T08:58:55;16.40;99.90
46458;DHT22;32155;54.076;12.092;2022-10-18T09:04:27;15.90;99.90
46458;DHT22;32155;54.076;12.092;2022-10-18T09:12:19;15.80;99.90
46458;DHT22;32155;54.076;12.092;2022-10-18T09:20:02;16.20;99.90
46458;DHT22;32155;54.076;12.092;2022-10-18T09:22:38;16.20;99.90
46458;DHT22;32155;54.076;12.092;2022-10-18T09:27:40;16.30;99.90
46458;DHT22;32155;54.076;12.092;2022-10-18T09:30:16;16.40;99.90
46458;DHT22;32155;54.076;12.092;2022-10-18T09:35:29;16.40;99.90
46458;DHT22;32155;54.076;12.092;2022-10-18T09:38:02;16.40;99.90
46458;DHT22;32155;54.076;12.092;2022-10-18T09:40:29;16.40;99.90
46458;DHT22;32155;54.076;12.092;2022-10-18T09:42:58;16.40;99.90
46458;DHT22;32155;54.076;12.092;2022-10-18T09:45:28;16.40;99.90
46458;DHT22;32155;54.076;12.092;2022-10-18T09:53:01;16.70;99.90
46458;DHT22;32155;54.076;12.092;2022-10-18T09:55:34;16.70;99.90
46458;DHT22;32155;54.076;12.092;2022-10-18T09:58:01;16.70;99.90
46458;DHT22;32155;54.076;12.092;2022-10-18T10:00:27;16.80;99.90
46458;DHT22;32155;54.076;12.092;2022-10-18T10:02:53;16.70;99.90
46458;DHT22;32155;54.076;12.092;2022-10-18T10:05:19;16.40;99.90
46458;DHT22;32155;54.076;12.092;2022-10-18T10:07:46;16.40;99.90
46458;DHT22;32155;54.076;12.092;2022-10-18T10:12:37;16.40;99.90
46458;DHT22;32155;54.076;12.092;2022-10-18T10:17:57;16.70;99.90
46458;DHT22;32155;54.076;12.092;2022-10-18T10:20:35;16.80;99.90
46458;DHT22;32155;54.076;12.092;2022-10-18T10:23:06;16.90;99.90
46458;DHT22;32155;54.076;12.092;2022-10-18T10:25:33;17.00;99.90
46458;DHT22;32155;54.076;12.092;2022-10-18T10:28:03;17.10;99.90
46458;DHT22;32155;54.076;12.092;2022-10-18T10:30:30;17.00;99.90
46458;DHT22;32155;54.076;12.092;2022-10-18T10:33:01;17.00;99.90
46458;DHT22;32155;54.076;12.092;2022-10-18T10:35:34;16.90;99.90
46458;DHT22;32155;54.076;12.092;2022-10-18T10:38:03;16.90;99.90
46458;DHT22;32155;54.076;12.092;2022-10-18T10:42:56;17.10;99.90
46458;DHT22;32155;54.076;12.092;2022-10-18T10:45:22;17.20;99.90
46458;DHT22;32155;54.076;12.092;2022-10-18T10:47:49;17.20;99.90
46458;DHT22;32155;54.076;12.092;2022-10-18T10:50:21;17.20;99.90
46458;DHT22;32155;54.076;12.092;2022-10-18T10:52:47;17.20;99.90
46458;DHT22;32155;54.076;12.092;2022-10-18T10:55:17;17.10;99.90
46458;DHT22;32155;54.076;12.092;2022-10-18T10:57:45;17.00;99.90
46458;DHT22;32155;54.076;12.092;2022-10-18T11:03:05;16.90;99.90
46458;DHT22;32155;54.076;12.092;2022-10-18T11:05:30;17.20;99.90
46458;DHT22;32155;54.076;12.092;2022-10-18T11:08:07;18.40;99.90
46458;DHT22;32155;54.076;12.092;2022-10-18T11:10:35;18.30;99.90
46458;DHT22;32155;54.076;12.092;2022-10-18T11:13:21;18.10;99.90
46458;DHT22;32155;54.076;12.092;2022-10-18T11:15:53;19.70;99.90
46458;DHT22;32155;54.076;12.092;2022-10-18T11:18:22;24.50;99.90
46458;DHT22;32155;54.076;12.092;2022-10-18T11:23:24;30.60;99.90
46458;DHT22;32155;54.076;12.092;2022-10-18T11:47:53;33.80;79.30
46458;DHT22;32155;54.076;12.092;2022-10-18T11:53:12;33.10;82.70
46458;DHT22;32155;54.076;12.092;2022-10-18T11:55:54;32.80;80.60
46458;DHT22;32155;54.076;12.092;2022-10-18T12:00:50;35.90;74.70
46458;DHT22;32155;54.076;12.092;2022-10-18T12:05:50;37.40;69.40
46458;DHT22;32155;54.076;12.092;2022-10-18T12:10:51;37.70;63.30
46458;DHT22;32155;54.076;12.092;2022-10-18T12:16:01;34.20;67.80
46458;DHT22;32155;54.076;12.092;2022-10-18T12:18:28;34.50;66.00
46458;DHT22;32155;54.076;12.092;2022-10-18T12:20:57;35.10;64.80
46458;DHT22;32155;54.076;12.092;2022-10-18T12:25:51;35.90;63.50
46458;DHT22;32155;54.076;12.092;2022-10-18T12:33:24;33.40;66.30
46458;DHT22;32155;54.076;12.092;2022-10-18T12:35:57;31.20;69.00
46458;DHT22;32155;54.076;12.092;2022-10-18T12:38:29;30.00;72.50
46458;DHT22;32155;54.076;12.092;2022-10-18T12:40:58;28.20;78.00
46458;DHT22;32155;54.076;12.092;2022-10-18T12:43:24;28.10;78.20
46458;DHT22;32155;54.076;12.092;2022-10-18T12:45:55;29.80;75.20
46458;DHT22;32155;54.076;12.092;2022-10-18T12:48:37;31.40;71.40
46458;DHT22;32155;54.076;12.092;2022-10-18T12:51:04;32.50;71.10
46458;DHT22;32155;54.076;12.092;2022-10-18T12:53:30;32.60;67.20
46458;DHT22;32155;54.076;12.092;2022-10-18T12:58:49;33.40;67.50
46458;DHT22;32155;54.076;12.092;2022-10-18T13:01:14;34.80;65.50
46458;DHT22;32155;54.076;12.092;2022-10-18T13:03:41;34.40;65.10
46458;DHT22;32155;54.076;12.092;2022-10-18T13:06:14;34.80;63.70
46458;DHT22;32155;54.076;12.092;2022-10-18T13:08:40;34.30;63.60
46458;DHT22;32155;54.076;12.092;2022-10-18T13:18:58;31.30;69.20
46458;DHT22;32155;54.076;12.092;2022-10-18T13:21:33;32.00;67.50
46458;DHT22;32155;54.076;12.092;2022-10-18T13:34:40;32.30;67.20
46458;DHT22;32155;54.076;12.092;2022-10-18T13:39:37;31.60;66.10
46458;DHT22;32155;54.076;12.092;2022-10-18T13:42:27;30.60;66.80
46458;DHT22;32155;54.076;12.092;2022-10-18T13:44:56;29.90;69.30
46458;DHT22;32155;54.076;12.092;2022-10-18T13:47:41;29.90;70.30
46458;DHT22;32155;54.076;12.092;2022-10-18T13:50:26;28.50;72.20
46458;DHT22;32155;54.076;12.092;2022-10-18T13:53:01;29.00;72.80
46458;DHT22;32155;54.076;12.092;2022-10-18T13:58:46;30.10;70.60
46458;DHT22;32155;54.076;12.092;2022-10-18T14:04:11;31.00;68.50
46458;DHT22;32155;54.076;12.092;2022-10-18T14:06:41;30.30;69.00
46458;DHT22;32155;54.076;12.092;2022-10-18T14:11:40;30.00;69.30
46458;DHT22;32155;54.076;12.092;2022-10-18T14:16:49;27.10;73.60
46458;DHT22;32155;54.076;12.092;2022-10-18T14:19:21;24.70;80.70
46458;DHT22;32155;54.076;12.092;2022-10-18T14:21:52;22.80;86.00
46458;DHT22;32155;54.076;12.092;2022-10-18T14:24:22;21.80;90.00
46458;DHT22;32155;54.076;12.092;2022-10-18T14:29:35;20.70;93.40
46458;DHT22;32155;54.076;12.092;2022-10-18T14:32:01;20.50;95.20
46458;DHT22;32155;54.076;12.092;2022-10-18T14:34:29;20.30;96.80
46458;DHT22;32155;54.076;12.092;2022-10-18T14:36:57;20.00;98.30
46458;DHT22;32155;54.076;12.092;2022-10-18T14:39:25;19.40;99.90
46458;DHT22;32155;54.076;12.092;2022-10-18T14:41:55;19.60;99.90
46458;DHT22;32155;54.076;12.092;2022-10-18T14:49:18;19.70;99.90
46458;DHT22;32155;54.076;12.092;2022-10-18T14:51:45;19.50;99.90
46458;DHT22;32155;54.076;12.092;2022-10-18T14:54:15;19.30;99.90
46458;DHT22;32155;54.076;12.092;2022-10-18T14:56:43;19.00;99.90
46458;DHT22;32155;54.076;12.092;2022-10-18T15:01:41;18.60;99.90
46458;DHT22;32155;54.076;12.092;2022-10-18T15:04:15;18.50;99.90
46458;DHT22;32155;54.076;12.092;2022-10-18T15:06:44;18.20;99.90
46458;DHT22;32155;54.076;12.092;2022-10-18T15:09:10;17.90;99.90
46458;DHT22;32155;54.076;12.092;2022-10-18T15:11:37;17.80;99.90
46458;DHT22;32155;54.076;12.092;2022-10-18T15:14:06;17.80;99.90
46458;DHT22;32155;54.076;12.092;2022-10-18T15:16:36;17.80;99.90
46458;DHT22;32155;54.076;12.092;2022-10-18T15:19:06;17.60;99.90
46458;DHT22;32155;54.076;12.092;2022-10-18T15:22:02;17.60;99.90
46458;DHT22;32155;54.076;12.092;2022-10-18T15:24:29;17.70;99.90
46458;DHT22;32155;54.076;12.092;2022-10-18T15:27:00;17.60;99.90
46458;DHT22;32155;54.076;12.092;2022-10-18T15:29:26;17.50;99.90
46458;DHT22;32155;54.076;12.092;2022-10-18T15:32:01;17.40;99.90
46458;DHT22;32155;54.076;12.092;2022-10-18T15:34:28;17.20;99.90
46458;DHT22;32155;54.076;12.092;2022-10-18T15:36:55;17.20;99.90
46458;DHT22;32155;54.076;12.092;2022-10-18T15:39:27;17.00;99.90
46458;DHT22;32155;54.076;12.092;2022-10-18T15:41:58;17.00;99.90
46458;DHT22;32155;54.076;12.092;2022-10-18T15:44:28;16.90;99.90
46458;DHT22;32155;54.076;12.092;2022-10-18T15:47:14;16.70;99.90
46458;DHT22;32155;54.076;12.092;2022-10-18T15:52:29;16.50;99.90
46458;DHT22;32155;54.076;12.092;2022-10-18T15:54:55;16.50;99.90
46458;DHT22;32155;54.076;12.092;2022-10-18T15:57:21;16.30;99.90
46458;DHT22;32155;54.076;12.092;2022-10-18T15:59:57;16.10;99.90
46458;DHT22;32155;54.076;12.092;2022-10-18T16:02:24;16.00;99.90
46458;DHT22;32155;54.076;12.092;2022-10-18T16:04:50;15.80;99.90
46458;DHT22;32155;54.076;12.092;2022-10-18T16:07:16;15.70;99.90
46458;DHT22;32155;54.076;12.092;2022-10-18T16:09:41;15.70;99.90
46458;DHT22;32155;54.076;12.092;2022-10-18T16:12:07;15.60;99.90
46458;DHT22;32155;54.076;12.092;2022-10-18T16:14:33;15.60;99.90
46458;DHT22;32155;54.076;12.092;2022-10-18T16:17:00;15.60;99.90
46458;DHT22;32155;54.076;12.092;2022-10-18T16:19:26;15.50;99.90
46458;DHT22;32155;54.076;12.092;2022-10-18T16:21:52;15.40;99.90
46458;DHT22;32155;54.076;12.092;2022-10-18T16:24:18;15.30;99.90
46458;DHT22;32155;54.076;12.092;2022-10-18T16:26:44;15.10;99.90
46458;DHT22;32155;54.076;12.092;2022-10-18T16:29:11;14.90;99.90
46458;DHT22;32155;54.076;12.092;2022-10-18T16:31:37;14.90;99.90
46458;DHT22;32155;54.076;12.092;2022-10-18T16:34:02;14.80;99.90
46458;DHT22;32155;54.076;12.092;2022-10-18T16:36:30;14.80;99.90
46458;DHT22;32155;54.076;12.092;2022-10-18T16:38:56;14.80;99.90
46458;DHT22;32155;54.076;12.092;2022-10-18T16:41:22;14.90;99.90
46458;DHT22;32155;54.076;12.092;2022-10-18T16:43:48;14.90;99.90
46458;DHT22;32155;54.076;12.092;2022-10-18T16:46:15;15.00;99.90
46458;DHT22;32155;54.076;12.092;2022-10-18T16:48:41;15.10;99.90
46458;DHT22;32155;54.076;12.092;2022-10-18T16:51:09;15.10;99.90
46458;DHT22;32155;54.076;12.092;2022-10-18T16:53:35;15.10;99.90
46458;DHT22;32155;54.076;12.092;2022-10-18T16:56:02;15.10;99.90
46458;DHT22;32155;54.076;12.092;2022-10-18T16:58:28;15.10;99.90
46458;DHT22;32155;54.076;12.092;2022-10-18T17:00:54;15.10;99.90
46458;DHT22;32155;54.076;12.092;2022-10-18T17:03:19;15.10;99.90
46458;DHT22;32155;54.076;12.092;2022-10-18T17:05:45;15.10;99.90
46458;DHT22;32155;54.076;12.092;2022-10-18T17:08:26;15.00;99.90
46458;DHT22;32155;54.076;12.092;2022-10-18T17:10:53;15.10;99.90
46458;DHT22;32155;54.076;12.092;2022-10-18T17:13:19;15.10;99.90
46458;DHT22;32155;54.076;12.092;2022-10-18T17:15:45;15.10;99.90
46458;DHT22;32155;54.076;12.092;2022-10-18T17:18:11;15.10;99.90
46458;DHT22;32155;54.076;12.092;2022-10-18T17:20:37;15.00;99.90
46458;DHT22;32155;54.076;12.092;2022-10-18T17:23:03;15.00;99.90
46458;DHT22;32155;54.076;12.092;2022-10-18T17:25:28;15.10;99.90
46458;DHT22;32155;54.076;12.092;2022-10-18T17:27:58;15.10;99.90
46458;DHT22;32155;54.076;12.092;2022-10-18T17:30:24;15.00;99.90
46458;DHT22;32155;54.076;12.092;2022-10-18T17:32:51;15.00;99.90
46458;DHT22;32155;54.076;12.092;2022-10-18T17:35:19;15.00;99.90
46458;DHT22;32155;54.076;12.092;2022-10-18T17:37:48;14.90;99.90
46458;DHT22;32155;54.076;12.092;2022-10-18T17:40:14;14.90;99.90
46458;DHT22;32155;54.076;12.092;2022-10-18T17:42:39;14.80;99.90
46458;DHT22;32155;54.076;12.092;2022-10-18T17:45:06;14.80;99.90
46458;DHT22;32155;54.076;12.092;2022-10-18T17:47:32;14.80;99.90
46458;DHT22;32155;54.076;12.092;2022-10-18T17:49:57;14.80;99.90
46458;DHT22;32155;54.076;12.092;2022-10-18T17:52:23;14.70;99.90
46458;DHT22;32155;54.076;12.092;2022-10-18T17:54:48;14.80;99.90
46458;DHT22;32155;54.076;12.092;2022-10-18T17:57:14;14.80;99.90
46458;DHT22;32155;54.076;12.092;2022-10-18T17:59:40;14.70;99.90